createdAt,value
2023-01-05T00:01:20.063Z,1.20
2023-01-05T00:04:09.905Z,2.70
2023-01-05T00:06:58.737Z,1.57
2023-01-05T00:09:53.634Z,0.97
2023-01-05T00:13:01.171Z,2.27
2023-01-05T00:16:23.676Z,1.37
2023-01-05T00:19:43.231Z,0.80
2023-01-05T00:22:34.794Z,4.70
2023-01-05T00:25:28.971Z,1.50
2023-01-05T00:28:20.019Z,2.77
2023-01-05T00:31:07.027Z,2.50
2023-01-05T00:33:53.903Z,1.10
2023-01-05T00:36:43.506Z,1.17
2023-01-05T00:39:32.723Z,1.63
2023-01-05T00:42:23.720Z,3.17
2023-01-05T00:45:16.893Z,1.80
2023-01-05T00:48:05.581Z,4.43
2023-01-05T00:50:57.226Z,3.23
2023-01-05T00:53:48.128Z,5.23
2023-01-05T00:56:34.540Z,6.03
2023-01-05T00:59:25.235Z,10.90
2023-01-05T01:02:14.786Z,5.47
2023-01-05T01:05:01.970Z,2.27
2023-01-05T01:07:56.873Z,2.20
2023-01-05T01:10:45.625Z,5.63
2023-01-05T01:13:33.585Z,10.97
2023-01-05T01:16:23.741Z,10.17
2023-01-05T01:19:15.385Z,6.17
2023-01-05T01:25:13.002Z,10.37
2023-01-05T01:28:04.386Z,8.30
2023-01-05T01:30:52.305Z,6.70
2023-01-05T01:33:47.446Z,7.73
2023-01-05T01:36:37.169Z,6.00
2023-01-05T01:39:27.074Z,4.23
2023-01-05T01:42:24.654Z,10.00
2023-01-05T01:45:23.469Z,11.37
2023-01-05T01:48:28.354Z,8.07
2023-01-05T01:51:42.753Z,8.50
2023-01-05T01:54:29.746Z,6.87
2023-01-05T01:57:24.556Z,6.87
2023-01-05T02:00:21.712Z,8.33
2023-01-05T02:03:31.200Z,10.87
2023-01-05T02:06:23.737Z,8.83
2023-01-05T02:09:11.200Z,7.70
2023-01-05T02:12:23.924Z,6.97
2023-01-05T02:15:38.717Z,8.30
2023-01-05T02:19:05.379Z,3.47
2023-01-05T02:22:24.490Z,10.80
2023-01-05T02:25:47.060Z,7.03
2023-01-05T02:29:03.094Z,3.80
2023-01-05T02:32:14.804Z,4.80
2023-01-05T02:35:19.980Z,5.27
2023-01-05T02:38:24.326Z,11.70
2023-01-05T02:41:25.231Z,12.00
2023-01-05T02:44:34.627Z,5.13
2023-01-05T02:47:46.281Z,8.60
2023-01-05T02:50:52.531Z,6.23
2023-01-05T02:53:52.829Z,7.13
2023-01-05T02:57:15.038Z,4.03
2023-01-05T03:00:02.072Z,8.03
2023-01-05T03:03:17.900Z,5.90
2023-01-05T03:06:25.547Z,5.07
2023-01-05T03:09:20.549Z,5.87
2023-01-05T03:12:54.371Z,6.20
2023-01-05T03:16:13.462Z,5.30
2023-01-05T03:19:32.041Z,5.80
2023-01-05T03:22:59.800Z,5.17
2023-01-05T03:26:06.178Z,4.73
2023-01-05T03:29:32.276Z,9.00
2023-01-05T03:32:42.505Z,7.80
2023-01-05T03:35:44.345Z,9.63
2023-01-05T03:38:39.207Z,4.17
2023-01-05T03:41:28.329Z,6.40
2023-01-05T03:44:20.171Z,9.80
2023-01-05T03:47:10.437Z,5.23
2023-01-05T03:49:58.876Z,3.17
2023-01-05T03:52:59.222Z,3.47
2023-01-05T03:55:50.753Z,2.07
2023-01-05T03:58:38.099Z,5.77
2023-01-05T04:01:26.109Z,3.90
2023-01-05T04:04:16.262Z,6.00
2023-01-05T04:07:16.393Z,1.30
2023-01-05T04:10:10.772Z,3.40
2023-01-05T04:13:07.718Z,5.20
2023-01-05T04:15:54.881Z,2.33
2023-01-05T04:18:44.678Z,4.93
2023-01-05T04:21:39.092Z,3.63
2023-01-05T04:24:26.123Z,7.40
2023-01-05T04:27:19.069Z,5.77
2023-01-05T04:30:26.191Z,2.43
2023-01-05T04:33:15.452Z,4.20
2023-01-05T04:36:08.606Z,3.00
2023-01-05T04:38:59.678Z,2.80
2023-01-05T04:41:58.810Z,2.47
2023-01-05T04:44:51.887Z,3.00
2023-01-05T04:47:41.089Z,2.07
2023-01-05T04:50:32.403Z,2.93
2023-01-05T04:53:42.281Z,1.47
2023-01-05T04:56:38.307Z,1.33
2023-01-05T04:59:30.779Z,3.37
2023-01-05T05:02:32.011Z,2.10
2023-01-05T05:05:32.517Z,3.47
2023-01-05T05:08:25.896Z,2.33
2023-01-05T05:11:14.938Z,1.57
2023-01-05T05:14:06.388Z,2.73
2023-01-05T05:16:53.425Z,0.80
2023-01-05T05:19:44.108Z,1.70
2023-01-05T05:22:31.087Z,0.70
2023-01-05T05:25:24.287Z,1.70
2023-01-05T05:28:17.288Z,2.20
2023-01-05T05:31:06.949Z,1.67
2023-01-05T05:33:56.356Z,2.60
2023-01-05T05:36:49.552Z,1.87
2023-01-05T05:39:39.411Z,1.17
2023-01-05T05:42:26.167Z,1.27
2023-01-05T05:45:13.166Z,0.80
2023-01-05T05:48:20.462Z,2.23
2023-01-05T05:51:07.135Z,1.90
2023-01-05T05:54:00.762Z,0.97
2023-01-05T05:56:49.187Z,2.13
2023-01-05T05:59:39.473Z,1.53
2023-01-05T06:02:28.583Z,5.03
2023-01-05T06:05:17.756Z,1.10
2023-01-05T06:08:05.475Z,0.80
2023-01-05T06:10:59.673Z,0.83
2023-01-05T06:13:48.654Z,2.50
2023-01-05T06:16:40.139Z,1.20
2023-01-05T06:19:29.481Z,0.80
2023-01-05T06:22:20.874Z,1.03
2023-01-05T06:25:08.375Z,0.67
2023-01-05T06:27:59.019Z,2.10
2023-01-05T06:30:50.905Z,2.93
2023-01-05T06:33:38.093Z,1.00
2023-01-05T06:36:27.218Z,1.50
2023-01-05T06:39:29.465Z,0.73
2023-01-05T06:42:23.262Z,0.70
2023-01-05T06:45:41.486Z,3.20
2023-01-05T06:48:28.231Z,0.93
2023-01-05T06:51:18.319Z,0.80
2023-01-05T06:54:07.323Z,0.90
2023-01-05T06:56:56.095Z,0.80
2023-01-05T06:59:45.507Z,0.80
2023-01-05T07:02:35.809Z,1.50
2023-01-05T07:05:25.089Z,1.43
2023-01-05T07:08:12.171Z,1.10
2023-01-05T07:10:58.979Z,0.83
2023-01-05T07:13:54.955Z,1.17
2023-01-05T07:16:44.096Z,1.07
2023-01-05T07:23:41.937Z,2.97
2023-01-05T07:26:28.368Z,1.77
2023-01-05T07:29:16.267Z,2.83
2023-01-05T07:32:05.297Z,1.57
2023-01-05T07:34:56.270Z,1.37
2023-01-05T07:37:51.827Z,1.57
2023-01-05T07:40:38.715Z,2.40
2023-01-05T07:43:28.489Z,1.90
2023-01-05T07:46:19.339Z,1.27
2023-01-05T07:49:10.488Z,1.27
2023-01-05T07:52:03.083Z,2.50
2023-01-05T07:54:51.850Z,2.40
2023-01-05T07:57:41.344Z,2.27
2023-01-05T08:00:33.111Z,2.83
2023-01-05T08:03:26.878Z,3.67
2023-01-05T08:06:54.322Z,1.60
2023-01-05T08:10:00.570Z,3.97
2023-01-05T08:13:02.510Z,3.87
2023-01-05T08:15:51.544Z,1.23
2023-01-05T08:18:40.596Z,2.10
2023-01-05T08:21:34.646Z,4.30
2023-01-05T08:24:23.495Z,1.10
2023-01-05T08:27:14.322Z,2.57
2023-01-05T08:30:03.513Z,7.00
2023-01-05T08:32:52.331Z,4.97
2023-01-05T08:35:47.437Z,1.63
2023-01-05T08:38:34.014Z,1.63
2023-01-05T08:41:34.663Z,2.60
2023-01-05T08:44:24.747Z,1.57
2023-01-05T08:47:11.094Z,3.57
2023-01-05T08:50:00.490Z,3.97
2023-01-05T08:52:48.155Z,1.83
2023-01-05T08:55:36.429Z,1.47
2023-01-05T08:58:28.014Z,2.13
2023-01-05T09:01:36.209Z,3.13
2023-01-05T09:04:23.115Z,1.87
2023-01-05T09:10:10.974Z,1.17
2023-01-05T09:12:58.063Z,1.80
2023-01-05T09:15:47.246Z,2.90
2023-01-05T09:18:51.482Z,2.10
2023-01-05T09:21:42.300Z,1.00
2023-01-05T09:24:31.702Z,5.30
2023-01-05T09:27:27.991Z,1.83
2023-01-05T09:30:18.447Z,1.30
2023-01-05T09:33:05.301Z,1.30
2023-01-05T09:36:00.002Z,5.93
2023-01-05T09:39:10.208Z,0.90
2023-01-05T09:42:08.510Z,2.00
2023-01-05T09:45:38.785Z,5.27
2023-01-05T09:48:47.241Z,5.80
2023-01-05T09:51:39.568Z,3.80
2023-01-05T09:54:42.628Z,4.63
2023-01-05T09:57:30.711Z,1.30
2023-01-05T10:00:24.280Z,3.50
2023-01-05T10:04:01.656Z,5.37
2023-01-05T10:06:50.406Z,1.87
2023-01-05T10:10:02.223Z,1.20
2023-01-05T10:13:15.202Z,1.30
2023-01-05T10:16:06.327Z,1.87
2023-01-05T10:19:03.254Z,1.40
2023-01-05T10:22:17.045Z,2.53
2023-01-05T10:25:13.968Z,3.97
2023-01-05T10:28:31.930Z,4.23
2023-01-05T10:31:46.002Z,3.30
2023-01-05T10:34:56.679Z,5.73
2023-01-05T10:38:34.216Z,2.53
2023-01-05T10:41:52.617Z,3.60
2023-01-05T10:44:53.655Z,1.27
2023-01-05T10:47:52.123Z,4.13
2023-01-05T10:50:47.563Z,2.73
2023-01-05T10:53:42.606Z,2.63
2023-01-05T10:56:31.813Z,5.57
2023-01-05T10:59:21.650Z,1.83
2023-01-05T11:02:32.504Z,3.80
2023-01-05T11:05:34.484Z,2.87
2023-01-05T11:08:48.461Z,1.10
2023-01-05T11:11:45.974Z,2.97
2023-01-05T11:15:02.905Z,4.20
2023-01-05T11:17:54.160Z,3.50
2023-01-05T11:21:22.224Z,3.40
2023-01-05T11:24:33.413Z,1.63
2023-01-05T11:27:30.094Z,7.80
2023-01-05T11:30:28.691Z,7.53
2023-01-05T11:33:28.562Z,5.47
2023-01-05T11:36:16.722Z,3.60
2023-01-05T11:39:10.943Z,2.20
2023-01-05T11:42:27.890Z,1.23
2023-01-05T11:45:29.539Z,1.47
2023-01-05T11:48:26.660Z,5.23
2023-01-05T11:51:53.074Z,5.80
2023-01-05T11:54:42.583Z,8.03
2023-01-05T11:57:37.021Z,4.23
2023-01-05T12:00:37.785Z,1.60
2023-01-05T12:04:02.409Z,2.60
2023-01-05T12:07:24.736Z,1.80
2023-01-05T12:10:52.024Z,1.80
2023-01-05T12:14:24.720Z,2.23
2023-01-05T12:17:15.895Z,1.33
2023-01-05T12:20:38.219Z,0.80
2023-01-05T12:24:06.580Z,2.27
2023-01-05T12:27:28.315Z,4.73
2023-01-05T12:34:33.484Z,0.90
2023-01-05T12:37:52.389Z,3.97
2023-01-05T12:41:13.417Z,2.83
2023-01-05T12:44:24.931Z,0.80
2023-01-05T12:48:09.638Z,1.93
2023-01-05T12:51:14.975Z,1.80
2023-01-05T12:54:18.075Z,3.30
2023-01-05T12:57:25.227Z,0.97
2023-01-05T13:01:15.499Z,3.53
2023-01-05T13:04:49.349Z,2.30
2023-01-05T13:08:23.488Z,2.43
2023-01-05T13:11:31.921Z,0.80
2023-01-05T13:14:31.849Z,1.20
2023-01-05T13:17:37.594Z,0.87
2023-01-05T13:20:54.628Z,0.80
2023-01-05T13:24:19.969Z,3.50
2023-01-05T13:27:14.937Z,1.90
2023-01-05T13:30:16.962Z,0.77
2023-01-05T13:33:47.016Z,2.93
2023-01-05T13:37:17.959Z,0.90
2023-01-05T13:40:53.087Z,0.60
2023-01-05T13:44:13.270Z,3.63
2023-01-05T13:47:46.346Z,0.80
2023-01-05T13:51:12.215Z,0.90
2023-01-05T13:54:11.999Z,4.70
2023-01-05T13:57:12.235Z,1.30
2023-01-05T14:00:11.217Z,4.17
2023-01-05T14:03:24.996Z,0.70
2023-01-05T14:06:33.675Z,1.00
2023-01-05T14:09:45.380Z,4.03
2023-01-05T14:13:14.370Z,1.10
2023-01-05T14:16:06.389Z,1.13
2023-01-05T14:19:16.229Z,1.00
2023-01-05T14:22:46.179Z,0.90
2023-01-05T14:26:00.882Z,1.00
2023-01-05T14:29:07.243Z,1.30
2023-01-05T14:31:57.295Z,0.80
2023-01-05T14:34:59.232Z,1.40
2023-01-05T14:38:10.025Z,1.10
2023-01-05T14:40:57.635Z,1.70
2023-01-05T14:43:49.219Z,1.80
2023-01-05T14:46:56.342Z,0.73
2023-01-05T14:49:53.964Z,1.27
2023-01-05T14:53:10.199Z,1.03
2023-01-05T14:56:48.665Z,0.90
2023-01-05T14:59:36.010Z,1.00
2023-01-05T15:03:03.156Z,1.87
2023-01-05T15:06:34.364Z,2.47
2023-01-05T15:10:10.215Z,1.80
2023-01-05T15:13:26.829Z,1.40
2023-01-05T15:16:38.236Z,1.27
2023-01-05T15:20:02.857Z,2.10
2023-01-05T15:23:23.498Z,3.20
2023-01-05T15:26:42.756Z,2.93
2023-01-05T15:30:08.754Z,2.50
2023-01-05T15:33:27.796Z,2.37
2023-01-05T15:36:55.079Z,3.10
2023-01-05T15:39:53.829Z,2.00
2023-01-05T15:42:51.302Z,2.00
2023-01-05T15:45:55.199Z,3.47
2023-01-05T15:49:08.879Z,1.20
2023-01-05T15:52:04.570Z,1.47
2023-01-05T15:55:18.423Z,2.87
2023-01-05T15:58:22.191Z,2.17
2023-01-05T16:01:17.019Z,2.83
2023-01-05T16:04:18.143Z,1.30
2023-01-05T16:07:06.597Z,1.93
2023-01-05T16:09:55.513Z,4.37
2023-01-05T16:12:45.081Z,1.17
2023-01-05T16:15:41.354Z,4.93
2023-01-05T16:18:44.011Z,1.10
2023-01-05T16:21:44.519Z,5.90
2023-01-05T16:24:56.485Z,2.90
2023-01-05T16:27:59.124Z,1.57
2023-01-05T16:31:38.441Z,2.90
2023-01-05T16:34:34.535Z,3.80
2023-01-05T16:37:23.652Z,8.33
2023-01-05T16:40:31.401Z,2.00
2023-01-05T16:43:24.511Z,2.23
2023-01-05T16:46:44.968Z,1.00
2023-01-05T16:49:58.100Z,0.80
2023-01-05T16:52:59.353Z,7.83
2023-01-05T16:55:57.153Z,1.70
2023-01-05T16:58:58.300Z,1.53
2023-01-05T17:01:53.658Z,1.87
2023-01-05T17:04:46.648Z,1.37
2023-01-05T17:07:33.882Z,3.50
2023-01-05T17:10:38.857Z,3.07
2023-01-05T17:13:35.983Z,3.23
2023-01-05T17:16:30.693Z,1.87
2023-01-05T17:19:29.078Z,2.47
2023-01-05T17:22:25.040Z,2.00
2023-01-05T17:25:25.401Z,1.40
2023-01-05T17:31:09.302Z,4.40
2023-01-05T17:33:58.340Z,5.70
2023-01-05T17:36:53.968Z,3.93
2023-01-05T17:39:46.999Z,3.03
2023-01-05T17:42:48.176Z,4.63
2023-01-05T17:45:47.828Z,5.10
2023-01-05T17:48:40.980Z,2.27
2023-01-05T17:51:41.695Z,1.93
2023-01-05T17:57:32.976Z,2.50
2023-01-05T18:00:33.536Z,3.23
2023-01-05T18:03:26.945Z,1.47
2023-01-05T18:06:14.042Z,3.13
2023-01-05T18:09:03.708Z,1.40
2023-01-05T18:12:00.385Z,2.37
2023-01-05T18:14:53.023Z,2.30
2023-01-05T18:17:48.924Z,4.83
2023-01-05T18:23:29.305Z,1.70
2023-01-05T18:26:16.513Z,5.33
2023-01-05T18:29:03.383Z,2.53
2023-01-05T18:31:51.989Z,4.60
2023-01-05T18:34:42.752Z,6.57
2023-01-05T18:37:31.976Z,7.87
2023-01-05T18:40:22.997Z,4.23
2023-01-05T18:43:09.828Z,4.53
2023-01-05T18:45:57.856Z,1.67
2023-01-05T18:48:55.508Z,1.87
2023-01-05T18:51:46.246Z,1.43
2023-01-05T18:54:35.786Z,1.73
2023-01-05T18:57:24.970Z,1.50
2023-01-05T19:00:15.232Z,4.10
2023-01-05T19:03:04.105Z,2.50
2023-01-05T19:05:55.278Z,2.30
2023-01-05T19:08:45.425Z,2.10
2023-01-05T19:11:34.643Z,6.87
2023-01-05T19:14:23.537Z,1.73
2023-01-05T19:17:12.972Z,1.60
2023-01-05T19:19:59.470Z,2.47
2023-01-05T19:22:50.383Z,2.10
2023-01-05T19:25:39.767Z,4.53
2023-01-05T19:28:45.221Z,1.57
2023-01-05T19:31:34.710Z,2.30
2023-01-05T19:34:21.426Z,1.63
2023-01-05T19:37:10.593Z,1.70
2023-01-05T19:40:01.091Z,1.40
2023-01-05T19:42:50.414Z,3.37
2023-01-05T19:45:37.304Z,3.77
2023-01-05T19:48:34.135Z,1.63
2023-01-05T19:51:25.577Z,1.40
2023-01-05T19:54:16.091Z,1.37
2023-01-05T19:57:09.881Z,2.20
2023-01-05T19:59:58.907Z,1.30
2023-01-05T20:02:45.424Z,1.43
2023-01-05T20:05:34.352Z,1.43
2023-01-05T20:08:23.248Z,2.90
2023-01-05T20:11:42.045Z,1.60
2023-01-05T20:14:36.630Z,4.37
2023-01-05T20:17:25.523Z,1.63
2023-01-05T20:20:17.885Z,4.03
2023-01-05T20:23:06.709Z,4.17
2023-01-05T20:25:53.610Z,2.93
2023-01-05T20:28:45.331Z,4.63
2023-01-05T20:31:46.713Z,2.50
2023-01-05T20:34:57.498Z,2.23
2023-01-05T20:37:49.096Z,2.87
2023-01-05T20:40:39.412Z,1.40
2023-01-05T20:43:26.001Z,2.73
2023-01-05T20:46:23.462Z,1.70
2023-01-05T20:49:23.480Z,1.20
2023-01-05T20:52:30.422Z,3.07
2023-01-05T20:55:22.281Z,1.17
2023-01-05T20:58:10.987Z,2.30
2023-01-05T21:01:10.283Z,3.13
2023-01-05T21:04:01.790Z,1.20
2023-01-05T21:07:01.438Z,1.20
2023-01-05T21:09:48.400Z,4.03
2023-01-05T21:12:37.481Z,1.37
2023-01-05T21:15:24.626Z,1.93
2023-01-05T21:18:17.463Z,1.47
2023-01-05T21:21:12.801Z,1.10
2023-01-05T21:24:02.490Z,1.20
2023-01-05T21:26:52.076Z,1.87
2023-01-05T21:29:42.017Z,4.13
2023-01-05T21:32:31.679Z,3.73
2023-01-05T21:35:20.923Z,1.03
2023-01-05T21:38:12.683Z,1.97
2023-01-05T21:41:37.449Z,1.57
2023-01-05T21:44:24.726Z,2.23
2023-01-05T21:47:20.717Z,1.80
2023-01-05T21:50:50.721Z,2.00
2023-01-05T21:54:01.405Z,1.73
2023-01-05T21:56:54.744Z,3.60
2023-01-05T21:59:45.102Z,1.57
2023-01-05T22:02:43.929Z,5.70
2023-01-05T22:05:33.923Z,1.70
2023-01-05T22:08:24.032Z,1.30
2023-01-05T22:11:17.773Z,5.70
2023-01-05T22:14:12.628Z,10.57
2023-01-05T22:17:05.865Z,9.30
2023-01-05T22:20:05.394Z,8.13
2023-01-05T22:22:57.190Z,12.53
2023-01-05T22:25:44.888Z,8.47
2023-01-05T22:28:33.944Z,8.50
2023-01-05T22:31:35.306Z,6.23
2023-01-05T22:34:36.272Z,4.30
2023-01-05T22:37:56.106Z,3.93
2023-01-05T22:40:53.719Z,5.63
2023-01-05T22:43:47.196Z,4.63
2023-01-05T22:46:41.307Z,5.83
2023-01-05T22:49:37.183Z,4.83
2023-01-05T22:52:39.449Z,4.63
2023-01-05T22:55:26.533Z,3.33
2023-01-05T22:58:22.052Z,5.10
2023-01-05T23:01:46.998Z,4.00
2023-01-05T23:04:46.108Z,2.67
2023-01-05T23:07:34.981Z,4.73
2023-01-05T23:10:24.483Z,3.10
2023-01-05T23:13:13.307Z,2.33
2023-01-05T23:16:01.498Z,2.97
2023-01-05T23:18:49.874Z,5.30
2023-01-05T23:21:45.533Z,4.13
2023-01-05T23:24:36.050Z,4.63
2023-01-05T23:27:26.149Z,1.87
2023-01-05T23:30:15.685Z,3.27
2023-01-05T23:33:05.133Z,2.63
2023-01-05T23:35:53.479Z,2.93
2023-01-05T23:38:47.471Z,3.33
2023-01-05T23:41:37.193Z,2.90
2023-01-05T23:44:23.812Z,3.10
2023-01-05T23:47:14.457Z,1.87
2023-01-05T23:53:06.690Z,3.40
2023-01-05T23:56:15.328Z,2.77
2023-01-05T23:59:12.360Z,4.20
